sensor_id;sensor_type;location;lat;lon;timestamp;P1;durP1;ratioP1;P2;durP2;ratioP2
51602;SDS011;37954;51.980;5.850;2023-07-20T00:01:40;4.40;;;3.95;;
51602;SDS011;37954;51.980;5.850;2023-07-20T00:05:56;6.80;;;3.90;;
51602;SDS011;37954;51.980;5.850;2023-07-20T00:10:08;7.50;;;4.53;;
51602;SDS011;37954;51.980;5.850;2023-07-20T00:14:20;5.82;;;3.90;;
51602;SDS011;37954;51.980;5.850;2023-07-20T00:18:32;5.78;;;4.13;;
51602;SDS011;37954;51.980;5.850;2023-07-20T00:22:43;5.18;;;4.20;;
51602;SDS011;37954;51.980;5.850;2023-07-20T00:26:55;6.07;;;4.63;;
51602;SDS011;37954;51.980;5.850;2023-07-20T00:31:07;6.25;;;4.00;;
51602;SDS011;37954;51.980;5.850;2023-07-20T00:35:20;5.28;;;4.50;;
51602;SDS011;37954;51.980;5.850;2023-07-20T00:39:32;5.78;;;4.75;;
51602;SDS011;37954;51.980;5.850;2023-07-20T00:43:44;7.25;;;4.60;;
51602;SDS011;37954;51.980;5.850;2023-07-20T00:47:56;6.00;;;4.38;;
51602;SDS011;37954;51.980;5.850;2023-07-20T00:52:08;5.68;;;4.35;;
51602;SDS011;37954;51.980;5.850;2023-07-20T00:56:22;6.10;;;4.85;;
51602;SDS011;37954;51.980;5.850;2023-07-20T01:00:34;4.97;;;4.28;;
51602;SDS011;37954;51.980;5.850;2023-07-20T01:04:47;6.93;;;4.53;;
51602;SDS011;37954;51.980;5.850;2023-07-20T01:09:06;8.77;;;4.07;;
51602;SDS011;37954;51.980;5.850;2023-07-20T01:13:24;4.43;;;4.03;;
51602;SDS011;37954;51.980;5.850;2023-07-20T01:17:38;5.18;;;4.20;;
51602;SDS011;37954;51.980;5.850;2023-07-20T01:21:55;6.10;;;3.85;;
51602;SDS011;37954;51.980;5.850;2023-07-20T01:35:10;5.43;;;3.83;;
51602;SDS011;37954;51.980;5.850;2023-07-20T01:39:25;7.13;;;4.20;;
51602;SDS011;37954;51.980;5.850;2023-07-20T01:43:38;4.90;;;4.43;;
51602;SDS011;37954;51.980;5.850;2023-07-20T01:47:49;5.38;;;3.80;;
51602;SDS011;37954;51.980;5.850;2023-07-20T01:52:01;5.50;;;3.97;;
51602;SDS011;37954;51.980;5.850;2023-07-20T01:56:14;6.35;;;4.00;;
51602;SDS011;37954;51.980;5.850;2023-07-20T02:00:26;5.07;;;4.35;;
51602;SDS011;37954;51.980;5.850;2023-07-20T02:04:38;5.63;;;4.10;;
51602;SDS011;37954;51.980;5.850;2023-07-20T02:08:50;4.13;;;3.65;;
51602;SDS011;37954;51.980;5.850;2023-07-20T02:13:01;4.20;;;3.63;;
51602;SDS011;37954;51.980;5.850;2023-07-20T02:17:13;3.83;;;3.53;;
51602;SDS011;37954;51.980;5.850;2023-07-20T02:21:25;6.03;;;3.72;;
51602;SDS011;37954;51.980;5.850;2023-07-20T02:25:37;4.75;;;3.70;;
51602;SDS011;37954;51.980;5.850;2023-07-20T02:29:49;4.47;;;3.60;;
51602;SDS011;37954;51.980;5.850;2023-07-20T02:34:01;7.60;;;3.60;;
51602;SDS011;37954;51.980;5.850;2023-07-20T02:38:13;5.85;;;2.80;;
51602;SDS011;37954;51.980;5.850;2023-07-20T02:42:25;5.00;;;3.05;;
51602;SDS011;37954;51.980;5.850;2023-07-20T02:46:37;4.25;;;3.20;;
51602;SDS011;37954;51.980;5.850;2023-07-20T02:50:49;3.25;;;2.30;;
51602;SDS011;37954;51.980;5.850;2023-07-20T02:55:01;2.85;;;2.63;;
51602;SDS011;37954;51.980;5.850;2023-07-20T02:59:13;2.70;;;2.50;;
51602;SDS011;37954;51.980;5.850;2023-07-20T03:03:25;4.55;;;3.42;;
51602;SDS011;37954;51.980;5.850;2023-07-20T03:07:37;3.30;;;3.00;;
51602;SDS011;37954;51.980;5.850;2023-07-20T03:11:49;3.75;;;3.10;;
51602;SDS011;37954;51.980;5.850;2023-07-20T03:16:01;3.42;;;3.13;;
51602;SDS011;37954;51.980;5.850;2023-07-20T03:20:13;3.80;;;3.00;;
51602;SDS011;37954;51.980;5.850;2023-07-20T03:24:25;3.53;;;3.20;;
51602;SDS011;37954;51.980;5.850;2023-07-20T03:28:37;4.65;;;3.63;;
51602;SDS011;37954;51.980;5.850;2023-07-20T03:32:50;3.97;;;3.47;;
51602;SDS011;37954;51.980;5.850;2023-07-20T03:37:02;4.28;;;3.53;;
51602;SDS011;37954;51.980;5.850;2023-07-20T03:41:16;3.53;;;3.20;;
51602;SDS011;37954;51.980;5.850;2023-07-20T03:45:27;4.00;;;3.17;;
51602;SDS011;37954;51.980;5.850;2023-07-20T03:49:39;3.72;;;3.28;;
51602;SDS011;37954;51.980;5.850;2023-07-20T03:53:51;3.72;;;3.35;;
51602;SDS011;37954;51.980;5.850;2023-07-20T03:58:03;3.35;;;3.05;;
51602;SDS011;37954;51.980;5.850;2023-07-20T04:02:15;3.63;;;3.28;;
51602;SDS011;37954;51.980;5.850;2023-07-20T04:06:26;5.47;;;3.40;;
51602;SDS011;37954;51.980;5.850;2023-07-20T04:10:38;4.63;;;3.65;;
51602;SDS011;37954;51.980;5.850;2023-07-20T04:14:50;3.70;;;3.22;;
51602;SDS011;37954;51.980;5.850;2023-07-20T04:19:02;3.30;;;3.00;;
51602;SDS011;37954;51.980;5.850;2023-07-20T04:23:14;5.35;;;3.20;;
51602;SDS011;37954;51.980;5.850;2023-07-20T04:27:26;3.85;;;3.30;;
51602;SDS011;37954;51.980;5.850;2023-07-20T04:31:39;5.05;;;3.60;;
51602;SDS011;37954;51.980;5.850;2023-07-20T04:35:54;3.67;;;3.38;;
51602;SDS011;37954;51.980;5.850;2023-07-20T04:40:15;4.07;;;3.22;;
51602;SDS011;37954;51.980;5.850;2023-07-20T04:44:27;3.35;;;3.05;;
51602;SDS011;37954;51.980;5.850;2023-07-20T04:48:39;3.40;;;3.08;;
51602;SDS011;37954;51.980;5.850;2023-07-20T04:52:52;3.72;;;3.40;;
51602;SDS011;37954;51.980;5.850;2023-07-20T04:57:11;2.90;;;2.70;;
51602;SDS011;37954;51.980;5.850;2023-07-20T05:01:28;3.30;;;2.30;;
51602;SDS011;37954;51.980;5.850;2023-07-20T05:05:40;2.38;;;2.17;;
51602;SDS011;37954;51.980;5.850;2023-07-20T05:09:52;3.38;;;2.15;;
51602;SDS011;37954;51.980;5.850;2023-07-20T05:14:04;3.28;;;2.15;;
51602;SDS011;37954;51.980;5.850;2023-07-20T05:18:16;2.45;;;2.25;;
51602;SDS011;37954;51.980;5.850;2023-07-20T05:22:33;2.28;;;2.08;;
51602;SDS011;37954;51.980;5.850;2023-07-20T05:26:45;4.07;;;1.85;;
51602;SDS011;37954;51.980;5.850;2023-07-20T05:30:57;3.78;;;1.88;;
51602;SDS011;37954;51.980;5.850;2023-07-20T05:35:11;2.33;;;1.92;;
51602;SDS011;37954;51.980;5.850;2023-07-20T05:39:23;3.45;;;1.80;;
51602;SDS011;37954;51.980;5.850;2023-07-20T05:43:35;2.67;;;1.70;;
51602;SDS011;37954;51.980;5.850;2023-07-20T05:47:47;1.88;;;1.60;;
51602;SDS011;37954;51.980;5.850;2023-07-20T05:51:58;2.63;;;1.85;;
51602;SDS011;37954;51.980;5.850;2023-07-20T05:56:10;2.10;;;1.90;;
51602;SDS011;37954;51.980;5.850;2023-07-20T06:00:22;1.70;;;1.60;;
51602;SDS011;37954;51.980;5.850;2023-07-20T06:04:38;2.05;;;1.77;;
51602;SDS011;37954;51.980;5.850;2023-07-20T06:08:51;1.30;;;1.20;;
51602;SDS011;37954;51.980;5.850;2023-07-20T06:13:02;1.48;;;1.38;;
51602;SDS011;37954;51.980;5.850;2023-07-20T06:17:14;4.25;;;1.40;;
51602;SDS011;37954;51.980;5.850;2023-07-20T06:21:26;1.50;;;1.40;;
51602;SDS011;37954;51.980;5.850;2023-07-20T06:25:38;1.92;;;1.48;;
51602;SDS011;37954;51.980;5.850;2023-07-20T06:29:54;1.50;;;1.40;;
51602;SDS011;37954;51.980;5.850;2023-07-20T06:34:06;1.50;;;1.40;;
51602;SDS011;37954;51.980;5.850;2023-07-20T06:38:21;0.98;;;0.90;;
51602;SDS011;37954;51.980;5.850;2023-07-20T06:43:11;2.25;;;1.20;;
51602;SDS011;37954;51.980;5.850;2023-07-20T06:47:40;1.33;;;1.23;;
51602;SDS011;37954;51.980;5.850;2023-07-20T06:52:30;0.90;;;0.90;;
51602;SDS011;37954;51.980;5.850;2023-07-20T06:57:12;0.80;;;0.80;;
51602;SDS011;37954;51.980;5.850;2023-07-20T07:01:50;1.02;;;0.93;;
51602;SDS011;37954;51.980;5.850;2023-07-20T07:06:02;0.90;;;0.90;;
51602;SDS011;37954;51.980;5.850;2023-07-20T07:10:15;1.05;;;1.05;;
51602;SDS011;37954;51.980;5.850;2023-07-20T07:14:27;0.93;;;0.93;;
51602;SDS011;37954;51.980;5.850;2023-07-20T07:18:38;1.08;;;0.80;;
51602;SDS011;37954;51.980;5.850;2023-07-20T07:22:51;1.40;;;1.00;;
51602;SDS011;37954;51.980;5.850;2023-07-20T07:27:04;0.88;;;0.85;;
51602;SDS011;37954;51.980;5.850;2023-07-20T07:31:16;1.35;;;1.13;;
51602;SDS011;37954;51.980;5.850;2023-07-20T07:35:28;1.20;;;0.95;;
51602;SDS011;37954;51.980;5.850;2023-07-20T07:39:41;1.20;;;1.10;;
51602;SDS011;37954;51.980;5.850;2023-07-20T07:43:52;0.88;;;0.82;;
51602;SDS011;37954;51.980;5.850;2023-07-20T07:48:04;0.80;;;0.80;;
51602;SDS011;37954;51.980;5.850;2023-07-20T07:52:17;0.90;;;0.77;;
51602;SDS011;37954;51.980;5.850;2023-07-20T07:56:29;2.72;;;0.90;;
51602;SDS011;37954;51.980;5.850;2023-07-20T08:00:41;0.60;;;0.60;;
51602;SDS011;37954;51.980;5.850;2023-07-20T08:04:53;0.80;;;0.80;;
51602;SDS011;37954;51.980;5.850;2023-07-20T08:09:05;3.10;;;1.00;;
51602;SDS011;37954;51.980;5.850;2023-07-20T08:13:20;1.00;;;1.00;;
51602;SDS011;37954;51.980;5.850;2023-07-20T08:17:32;0.90;;;0.90;;
51602;SDS011;37954;51.980;5.850;2023-07-20T08:21:44;1.95;;;0.98;;
51602;SDS011;37954;51.980;5.850;2023-07-20T08:25:56;0.70;;;0.70;;
51602;SDS011;37954;51.980;5.850;2023-07-20T08:30:08;0.90;;;0.90;;
51602;SDS011;37954;51.980;5.850;2023-07-20T08:34:20;1.13;;;1.10;;
51602;SDS011;37954;51.980;5.850;2023-07-20T08:38:42;1.42;;;0.70;;
51602;SDS011;37954;51.980;5.850;2023-07-20T08:42:54;0.95;;;0.80;;
51602;SDS011;37954;51.980;5.850;2023-07-20T08:47:06;0.88;;;0.88;;
51602;SDS011;37954;51.980;5.850;2023-07-20T08:51:21;0.77;;;0.77;;
51602;SDS011;37954;51.980;5.850;2023-07-20T08:55:34;0.88;;;0.88;;
51602;SDS011;37954;51.980;5.850;2023-07-20T08:59:47;1.52;;;0.90;;
51602;SDS011;37954;51.980;5.850;2023-07-20T09:04:01;1.20;;;1.10;;
51602;SDS011;37954;51.980;5.850;2023-07-20T09:08:13;1.15;;;0.90;;
51602;SDS011;37954;51.980;5.850;2023-07-20T09:12:25;0.90;;;0.90;;
51602;SDS011;37954;51.980;5.850;2023-07-20T09:16:47;2.40;;;1.35;;
51602;SDS011;37954;51.980;5.850;2023-07-20T09:21:04;1.30;;;1.20;;
51602;SDS011;37954;51.980;5.850;2023-07-20T09:25:19;0.90;;;0.90;;
51602;SDS011;37954;51.980;5.850;2023-07-20T09:29:34;1.63;;;0.90;;
51602;SDS011;37954;51.980;5.850;2023-07-20T09:33:46;0.80;;;0.80;;
51602;SDS011;37954;51.980;5.850;2023-07-20T09:38:01;1.95;;;1.00;;
51602;SDS011;37954;51.980;5.850;2023-07-20T09:42:16;1.10;;;1.00;;
51602;SDS011;37954;51.980;5.850;2023-07-20T09:46:44;0.98;;;0.98;;
51602;SDS011;37954;51.980;5.850;2023-07-20T09:51:00;0.85;;;0.85;;
51602;SDS011;37954;51.980;5.850;2023-07-20T09:55:13;1.00;;;1.00;;
51602;SDS011;37954;51.980;5.850;2023-07-20T09:59:25;0.80;;;0.80;;
51602;SDS011;37954;51.980;5.850;2023-07-20T10:03:37;0.88;;;0.88;;
51602;SDS011;37954;51.980;5.850;2023-07-20T10:07:50;0.77;;;0.77;;
51602;SDS011;37954;51.980;5.850;2023-07-20T10:12:22;0.90;;;0.90;;
51602;SDS011;37954;51.980;5.850;2023-07-20T10:16:39;0.90;;;0.90;;
51602;SDS011;37954;51.980;5.850;2023-07-20T10:21:00;0.90;;;0.90;;
51602;SDS011;37954;51.980;5.850;2023-07-20T10:25:16;1.17;;;1.08;;
51602;SDS011;37954;51.980;5.850;2023-07-20T10:29:31;1.20;;;1.10;;
51602;SDS011;37954;51.980;5.850;2023-07-20T10:33:44;1.13;;;1.02;;
51602;SDS011;37954;51.980;5.850;2023-07-20T10:38:01;1.20;;;1.10;;
51602;SDS011;37954;51.980;5.850;2023-07-20T10:42:13;0.95;;;0.95;;
51602;SDS011;37954;51.980;5.850;2023-07-20T10:51:12;1.15;;;1.05;;
51602;SDS011;37954;51.980;5.850;2023-07-20T10:55:27;1.20;;;1.10;;
51602;SDS011;37954;51.980;5.850;2023-07-20T10:59:39;1.13;;;0.82;;
51602;SDS011;37954;51.980;5.850;2023-07-20T11:03:51;1.02;;;1.00;;
51602;SDS011;37954;51.980;5.850;2023-07-20T11:08:10;1.20;;;1.10;;
51602;SDS011;37954;51.980;5.850;2023-07-20T11:12:22;2.78;;;1.25;;
51602;SDS011;37954;51.980;5.850;2023-07-20T11:16:42;1.10;;;1.10;;
51602;SDS011;37954;51.980;5.850;2023-07-20T11:20:55;1.05;;;0.95;;
51602;SDS011;37954;51.980;5.850;2023-07-20T11:25:07;1.17;;;1.08;;
51602;SDS011;37954;51.980;5.850;2023-07-20T11:29:22;1.00;;;0.90;;
51602;SDS011;37954;51.980;5.850;2023-07-20T11:33:43;1.05;;;0.90;;
51602;SDS011;37954;51.980;5.850;2023-07-20T11:37:55;2.75;;;0.93;;
51602;SDS011;37954;51.980;5.850;2023-07-20T11:42:07;0.80;;;0.80;;
51602;SDS011;37954;51.980;5.850;2023-07-20T11:46:20;0.90;;;0.90;;
51602;SDS011;37954;51.980;5.850;2023-07-20T11:50:32;2.88;;;1.00;;
51602;SDS011;37954;51.980;5.850;2023-07-20T11:54:50;0.93;;;0.93;;
51602;SDS011;37954;51.980;5.850;2023-07-20T11:59:02;1.00;;;1.00;;
51602;SDS011;37954;51.980;5.850;2023-07-20T12:03:14;1.10;;;1.00;;
51602;SDS011;37954;51.980;5.850;2023-07-20T12:07:34;0.85;;;0.85;;
51602;SDS011;37954;51.980;5.850;2023-07-20T12:11:51;0.60;;;0.60;;
51602;SDS011;37954;51.980;5.850;2023-07-20T12:16:07;0.93;;;0.93;;
51602;SDS011;37954;51.980;5.850;2023-07-20T12:20:25;1.23;;;1.13;;
51602;SDS011;37954;51.980;5.850;2023-07-20T12:24:45;4.13;;;1.20;;
51602;SDS011;37954;51.980;5.850;2023-07-20T12:28:57;1.08;;;1.08;;
51602;SDS011;37954;51.980;5.850;2023-07-20T12:33:10;0.80;;;0.80;;
51602;SDS011;37954;51.980;5.850;2023-07-20T12:37:25;0.90;;;0.90;;
51602;SDS011;37954;51.980;5.850;2023-07-20T12:41:38;0.98;;;0.88;;
51602;SDS011;37954;51.980;5.850;2023-07-20T12:45:50;0.98;;;0.90;;
51602;SDS011;37954;51.980;5.850;2023-07-20T12:50:02;0.50;;;0.50;;
51602;SDS011;37954;51.980;5.850;2023-07-20T12:54:17;1.40;;;1.00;;
51602;SDS011;37954;51.980;5.850;2023-07-20T12:58:29;0.80;;;0.80;;
51602;SDS011;37954;51.980;5.850;2023-07-20T13:02:46;1.30;;;1.00;;
51602;SDS011;37954;51.980;5.850;2023-07-20T13:06:58;0.95;;;0.90;;
51602;SDS011;37954;51.980;5.850;2023-07-20T13:11:11;0.80;;;0.80;;
51602;SDS011;37954;51.980;5.850;2023-07-20T13:15:24;0.80;;;0.80;;
51602;SDS011;37954;51.980;5.850;2023-07-20T13:19:43;0.75;;;0.75;;
51602;SDS011;37954;51.980;5.850;2023-07-20T13:23:54;0.70;;;0.70;;
51602;SDS011;37954;51.980;5.850;2023-07-20T13:28:06;0.75;;;0.75;;
51602;SDS011;37954;51.980;5.850;2023-07-20T13:32:21;1.00;;;1.00;;
51602;SDS011;37954;51.980;5.850;2023-07-20T13:36:35;0.60;;;0.60;;
51602;SDS011;37954;51.980;5.850;2023-07-20T13:40:51;0.88;;;0.80;;
51602;SDS011;37954;51.980;5.850;2023-07-20T13:45:03;0.75;;;0.70;;
51602;SDS011;37954;51.980;5.850;2023-07-20T13:49:19;0.80;;;0.80;;
51602;SDS011;37954;51.980;5.850;2023-07-20T13:53:36;0.77;;;0.77;;
51602;SDS011;37954;51.980;5.850;2023-07-20T13:57:56;0.82;;;0.82;;
51602;SDS011;37954;51.980;5.850;2023-07-20T14:02:18;1.00;;;0.90;;
51602;SDS011;37954;51.980;5.850;2023-07-20T14:06:44;1.42;;;0.90;;
51602;SDS011;37954;51.980;5.850;2023-07-20T14:11:11;1.80;;;1.02;;
51602;SDS011;37954;51.980;5.850;2023-07-20T14:15:36;0.68;;;0.68;;
51602;SDS011;37954;51.980;5.850;2023-07-20T14:20:10;0.80;;;0.80;;
51602;SDS011;37954;51.980;5.850;2023-07-20T14:24:28;0.77;;;0.77;;
51602;SDS011;37954;51.980;5.850;2023-07-20T14:28:47;1.17;;;0.85;;
51602;SDS011;37954;51.980;5.850;2023-07-20T14:33:16;5.25;;;1.15;;
51602;SDS011;37954;51.980;5.850;2023-07-20T14:37:55;0.70;;;0.70;;
51602;SDS011;37954;51.980;5.850;2023-07-20T14:42:08;1.00;;;1.00;;
51602;SDS011;37954;51.980;5.850;2023-07-20T14:46:34;1.08;;;1.00;;
51602;SDS011;37954;51.980;5.850;2023-07-20T14:51:10;0.80;;;0.80;;
51602;SDS011;37954;51.980;5.850;2023-07-20T14:55:43;2.53;;;1.33;;
51602;SDS011;37954;51.980;5.850;2023-07-20T15:00:21;0.85;;;0.85;;
51602;SDS011;37954;51.980;5.850;2023-07-20T15:04:36;0.80;;;0.80;;
51602;SDS011;37954;51.980;5.850;2023-07-20T15:09:05;0.80;;;0.80;;
51602;SDS011;37954;51.980;5.850;2023-07-20T15:13:18;4.72;;;1.08;;
51602;SDS011;37954;51.980;5.850;2023-07-20T15:17:40;1.50;;;1.13;;
51602;SDS011;37954;51.980;5.850;2023-07-20T15:22:13;1.05;;;0.95;;
51602;SDS011;37954;51.980;5.850;2023-07-20T15:26:41;1.30;;;1.10;;
51602;SDS011;37954;51.980;5.850;2023-07-20T15:31:00;1.92;;;0.85;;
51602;SDS011;37954;51.980;5.850;2023-07-20T15:35:17;0.80;;;0.80;;
51602;SDS011;37954;51.980;5.850;2023-07-20T15:39:29;0.98;;;0.93;;
51602;SDS011;37954;51.980;5.850;2023-07-20T15:43:42;0.98;;;0.98;;
51602;SDS011;37954;51.980;5.850;2023-07-20T15:47:54;1.73;;;1.00;;
51602;SDS011;37954;51.980;5.850;2023-07-20T15:52:06;1.00;;;1.00;;
51602;SDS011;37954;51.980;5.850;2023-07-20T15:56:18;1.83;;;1.63;;
51602;SDS011;37954;51.980;5.850;2023-07-20T16:00:30;2.80;;;1.02;;
51602;SDS011;37954;51.980;5.850;2023-07-20T16:04:42;1.70;;;1.20;;
51602;SDS011;37954;51.980;5.850;2023-07-20T16:09:03;1.00;;;1.00;;
51602;SDS011;37954;51.980;5.850;2023-07-20T16:13:16;1.90;;;1.10;;
51602;SDS011;37954;51.980;5.850;2023-07-20T16:17:28;1.30;;;1.13;;
51602;SDS011;37954;51.980;5.850;2023-07-20T16:21:43;1.15;;;1.05;;
51602;SDS011;37954;51.980;5.850;2023-07-20T16:25:56;2.00;;;1.10;;
51602;SDS011;37954;51.980;5.850;2023-07-20T16:30:08;1.10;;;0.95;;
51602;SDS011;37954;51.980;5.850;2023-07-20T16:34:19;1.05;;;1.00;;
51602;SDS011;37954;51.980;5.850;2023-07-20T16:38:35;1.25;;;1.15;;
51602;SDS011;37954;51.980;5.850;2023-07-20T16:42:50;5.38;;;1.48;;
51602;SDS011;37954;51.980;5.850;2023-07-20T16:47:04;1.48;;;1.10;;
51602;SDS011;37954;51.980;5.850;2023-07-20T16:51:16;1.10;;;1.00;;
51602;SDS011;37954;51.980;5.850;2023-07-20T16:55:28;1.20;;;0.82;;
51602;SDS011;37954;51.980;5.850;2023-07-20T16:59:40;1.40;;;1.10;;
51602;SDS011;37954;51.980;5.850;2023-07-20T17:03:52;4.25;;;1.15;;
51602;SDS011;37954;51.980;5.850;2023-07-20T17:08:04;1.20;;;1.10;;
51602;SDS011;37954;51.980;5.850;2023-07-20T17:12:16;1.00;;;0.98;;
51602;SDS011;37954;51.980;5.850;2023-07-20T17:16:29;1.73;;;0.90;;
51602;SDS011;37954;51.980;5.850;2023-07-20T17:20:40;0.95;;;0.95;;
51602;SDS011;37954;51.980;5.850;2023-07-20T17:24:55;0.80;;;0.80;;
51602;SDS011;37954;51.980;5.850;2023-07-20T17:29:10;0.90;;;0.90;;
51602;SDS011;37954;51.980;5.850;2023-07-20T17:33:22;0.98;;;0.95;;
51602;SDS011;37954;51.980;5.850;2023-07-20T17:37:35;1.35;;;1.02;;
51602;SDS011;37954;51.980;5.850;2023-07-20T17:41:50;1.70;;;1.23;;
51602;SDS011;37954;51.980;5.850;2023-07-20T17:46:02;0.80;;;0.80;;
51602;SDS011;37954;51.980;5.850;2023-07-20T17:50:16;1.35;;;1.00;;
51602;SDS011;37954;51.980;5.850;2023-07-20T17:54:29;1.13;;;1.10;;
51602;SDS011;37954;51.980;5.850;2023-07-20T17:58:45;1.33;;;1.10;;
51602;SDS011;37954;51.980;5.850;2023-07-20T18:02:57;1.05;;;0.88;;
51602;SDS011;37954;51.980;5.850;2023-07-20T18:07:10;0.93;;;0.93;;
51602;SDS011;37954;51.980;5.850;2023-07-20T18:11:21;2.45;;;1.00;;
51602;SDS011;37954;51.980;5.850;2023-07-20T18:15:34;1.10;;;1.00;;
51602;SDS011;37954;51.980;5.850;2023-07-20T18:19:46;1.10;;;1.00;;
51602;SDS011;37954;51.980;5.850;2023-07-20T18:23:59;2.35;;;1.00;;
51602;SDS011;37954;51.980;5.850;2023-07-20T18:28:11;1.15;;;1.00;;
51602;SDS011;37954;51.980;5.850;2023-07-20T18:32:23;1.02;;;1.02;;
51602;SDS011;37954;51.980;5.850;2023-07-20T18:36:34;0.90;;;0.90;;
51602;SDS011;37954;51.980;5.850;2023-07-20T18:40:46;0.90;;;0.90;;
51602;SDS011;37954;51.980;5.850;2023-07-20T18:44:58;1.20;;;1.10;;
51602;SDS011;37954;51.980;5.850;2023-07-20T18:49:10;1.13;;;1.02;;
51602;SDS011;37954;51.980;5.850;2023-07-20T18:53:22;0.93;;;0.93;;
51602;SDS011;37954;51.980;5.850;2023-07-20T18:57:34;1.25;;;1.10;;
51602;SDS011;37954;51.980;5.850;2023-07-20T19:01:49;0.95;;;0.95;;
51602;SDS011;37954;51.980;5.850;2023-07-20T19:06:01;1.20;;;0.93;;
51602;SDS011;37954;51.980;5.850;2023-07-20T19:10:13;5.07;;;1.65;;
51602;SDS011;37954;51.980;5.850;2023-07-20T19:14:26;4.97;;;2.28;;
51602;SDS011;37954;51.980;5.850;2023-07-20T19:18:38;2.85;;;2.30;;
51602;SDS011;37954;51.980;5.850;2023-07-20T19:22:53;2.88;;;2.67;;
51602;SDS011;37954;51.980;5.850;2023-07-20T19:27:05;3.28;;;2.97;;
51602;SDS011;37954;51.980;5.850;2023-07-20T19:31:17;2.92;;;2.67;;
51602;SDS011;37954;51.980;5.850;2023-07-20T19:35:29;2.88;;;2.67;;
51602;SDS011;37954;51.980;5.850;2023-07-20T19:39:47;2.47;;;2.28;;
51602;SDS011;37954;51.980;5.850;2023-07-20T19:43:59;2.60;;;2.40;;
51602;SDS011;37954;51.980;5.850;2023-07-20T19:48:10;2.88;;;2.45;;
51602;SDS011;37954;51.980;5.850;2023-07-20T19:52:23;5.25;;;2.65;;
51602;SDS011;37954;51.980;5.850;2023-07-20T19:56:38;3.40;;;3.10;;
51602;SDS011;37954;51.980;5.850;2023-07-20T20:00:58;3.40;;;2.97;;
51602;SDS011;37954;51.980;5.850;2023-07-20T20:10:39;2.92;;;2.65;;
51602;SDS011;37954;51.980;5.850;2023-07-20T20:14:54;2.58;;;2.38;;
51602;SDS011;37954;51.980;5.850;2023-07-20T20:19:07;3.03;;;2.53;;
51602;SDS011;37954;51.980;5.850;2023-07-20T20:23:38;2.90;;;2.70;;
51602;SDS011;37954;51.980;5.850;2023-07-20T20:27:56;3.25;;;2.25;;
51602;SDS011;37954;51.980;5.850;2023-07-20T20:32:08;2.50;;;2.00;;
51602;SDS011;37954;51.980;5.850;2023-07-20T20:36:22;2.70;;;2.30;;
51602;SDS011;37954;51.980;5.850;2023-07-20T20:40:54;2.10;;;1.90;;
51602;SDS011;37954;51.980;5.850;2023-07-20T20:45:08;2.05;;;1.95;;
51602;SDS011;37954;51.980;5.850;2023-07-20T20:49:22;1.85;;;1.70;;
51602;SDS011;37954;51.980;5.850;2023-07-20T20:53:33;2.28;;;1.65;;
51602;SDS011;37954;51.980;5.850;2023-07-20T20:57:45;1.30;;;1.20;;
51602;SDS011;37954;51.980;5.850;2023-07-20T21:01:58;3.08;;;1.63;;
51602;SDS011;37954;51.980;5.850;2023-07-20T21:06:10;1.75;;;1.38;;
51602;SDS011;37954;51.980;5.850;2023-07-20T21:10:21;1.45;;;1.30;;
51602;SDS011;37954;51.980;5.850;2023-07-20T21:14:33;3.13;;;1.38;;
51602;SDS011;37954;51.980;5.850;2023-07-20T21:18:45;2.50;;;1.35;;
51602;SDS011;37954;51.980;5.850;2023-07-20T21:22:57;1.30;;;1.20;;
51602;SDS011;37954;51.980;5.850;2023-07-20T21:27:09;1.35;;;1.20;;
51602;SDS011;37954;51.980;5.850;2023-07-20T21:31:21;3.35;;;1.92;;
51602;SDS011;37954;51.980;5.850;2023-07-20T21:35:33;1.30;;;1.20;;
51602;SDS011;37954;51.980;5.850;2023-07-20T21:39:45;1.60;;;1.50;;
51602;SDS011;37954;51.980;5.850;2023-07-20T21:43:57;1.85;;;1.50;;
51602;SDS011;37954;51.980;5.850;2023-07-20T21:48:08;1.42;;;1.33;;
51602;SDS011;37954;51.980;5.850;2023-07-20T21:52:20;4.07;;;1.52;;
51602;SDS011;37954;51.980;5.850;2023-07-20T21:56:32;1.67;;;1.58;;
51602;SDS011;37954;51.980;5.850;2023-07-20T22:00:47;1.35;;;1.25;;
51602;SDS011;37954;51.980;5.850;2023-07-20T22:05:07;2.65;;;1.92;;
51602;SDS011;37954;51.980;5.850;2023-07-20T22:09:19;1.50;;;1.40;;
51602;SDS011;37954;51.980;5.850;2023-07-20T22:13:31;3.53;;;1.98;;
51602;SDS011;37954;51.980;5.850;2023-07-20T22:17:43;1.70;;;1.42;;
51602;SDS011;37954;51.980;5.850;2023-07-20T22:21:55;1.83;;;1.60;;
51602;SDS011;37954;51.980;5.850;2023-07-20T22:26:07;1.60;;;1.50;;
51602;SDS011;37954;51.980;5.850;2023-07-20T22:30:18;1.40;;;1.30;;
51602;SDS011;37954;51.980;5.850;2023-07-20T22:34:31;4.82;;;1.52;;
51602;SDS011;37954;51.980;5.850;2023-07-20T22:38:46;1.60;;;1.25;;
51602;SDS011;37954;51.980;5.850;2023-07-20T22:42:58;1.60;;;1.50;;
51602;SDS011;37954;51.980;5.850;2023-07-20T22:47:09;1.70;;;1.52;;
51602;SDS011;37954;51.980;5.850;2023-07-20T22:51:21;1.50;;;1.40;;
51602;SDS011;37954;51.980;5.850;2023-07-20T22:55:34;2.10;;;1.52;;
51602;SDS011;37954;51.980;5.850;2023-07-20T22:59:45;1.42;;;1.33;;
51602;SDS011;37954;51.980;5.850;2023-07-20T23:03:57;1.40;;;1.33;;
51602;SDS011;37954;51.980;5.850;2023-07-20T23:08:10;1.30;;;1.20;;
51602;SDS011;37954;51.980;5.850;2023-07-20T23:12:22;1.58;;;1.40;;
51602;SDS011;37954;51.980;5.850;2023-07-20T23:16:33;2.83;;;1.80;;
51602;SDS011;37954;51.980;5.850;2023-07-20T23:20:46;1.52;;;1.42;;
51602;SDS011;37954;51.980;5.850;2023-07-20T23:24:59;5.22;;;1.50;;
51602;SDS011;37954;51.980;5.850;2023-07-20T23:29:11;2.83;;;1.40;;
51602;SDS011;37954;51.980;5.850;2023-07-20T23:33:26;1.48;;;1.33;;
51602;SDS011;37954;51.980;5.850;2023-07-20T23:37:38;1.30;;;1.20;;
51602;SDS011;37954;51.980;5.850;2023-07-20T23:41:50;1.40;;;1.30;;
51602;SDS011;37954;51.980;5.850;2023-07-20T23:46:02;1.30;;;1.20;;
51602;SDS011;37954;51.980;5.850;2023-07-20T23:50:15;2.28;;;1.30;;
51602;SDS011;37954;51.980;5.850;2023-07-20T23:54:29;1.30;;;1.20;;
51602;SDS011;37954;51.980;5.850;2023-07-20T23:58:42;2.25;;;1.40;;
